Time;durP1;ratioP1;P1;durP2;ratioP2;P2;SDS_P1;SDS_P2;PMS_P1;PMS_P2;Temp;Humidity;BMP_temperature;BMP_pressure;BME280_temperature;BME280_humidity;BME280_pressure;Samples;Min_cycle;Max_cycle;Signal;HPM_P1;HPM_P2
2021/10/14 00:01:26;;;;;;;12.40;8.52;;;;;;;7.12;100.00;100481.88;5092399;28;20200;-78
2021/10/14 00:03:52;;;;;;;10.93;8.65;;;;;;;7.00;100.00;100492.97;5091868;28;20195;-77
2021/10/14 00:06:19;;;;;;;13.52;9.85;;;;;;;6.93;100.00;100491.41;5092866;28;20206;-77
2021/10/14 00:08:46;;;;;;;12.02;9.48;;;;;;;7.05;100.00;100488.34;5092550;28;20184;-78
2021/10/14 00:11:12;;;;;;;10.85;8.88;;;;;;;7.16;100.00;100486.25;5092458;28;20282;-78
2021/10/14 00:13:41;;;;;;;11.88;9.77;;;;;;;7.10;100.00;100476.59;5092521;28;20199;-78
2021/10/14 00:16:07;;;;;;;13.75;9.52;;;;;;;7.09;100.00;100469.47;5092722;28;20198;-78
2021/10/14 00:18:34;;;;;;;13.10;8.70;;;;;;;7.15;100.00;100468.44;5092517;28;20306;-78
2021/10/14 00:21:01;;;;;;;11.18;9.95;;;;;;;7.07;100.00;100473.13;5092067;28;20184;-78
2021/10/14 00:23:27;;;;;;;13.65;9.30;;;;;;;7.05;100.00;100472.28;5092339;28;20212;-78
2021/10/14 00:25:54;;;;;;;14.25;9.50;;;;;;;6.98;100.00;100476.06;5092731;28;20642;-78
2021/10/14 00:28:21;;;;;;;10.48;9.27;;;;;;;6.85;100.00;100471.09;5091822;28;20279;-78
2021/10/14 00:30:49;;;;;;;11.30;9.63;;;;;;;6.95;100.00;100465.47;5091638;28;20210;-77
2021/10/14 00:33:15;;;;;;;18.10;13.40;;;;;;;6.99;100.00;100462.66;5092250;28;20693;-78
2021/10/14 00:35:42;;;;;;;23.58;15.85;;;;;;;7.23;100.00;100457.47;5091794;28;20274;-78
2021/10/14 00:38:09;;;;;;;13.57;10.25;;;;;;;7.29;100.00;100455.47;5091935;28;20206;-79
2021/10/14 00:40:35;;;;;;;11.90;9.05;;;;;;;7.22;100.00;100456.59;5092210;28;20279;-78
2021/10/14 00:43:02;;;;;;;14.77;10.50;;;;;;;7.28;100.00;100460.88;5089457;28;20303;-79
2021/10/14 00:45:29;;;;;;;15.73;9.73;;;;;;;7.31;100.00;100464.34;5071775;28;20181;-79
2021/10/14 00:47:57;;;;;;;12.00;9.18;;;;;;;7.24;100.00;100465.47;5089200;28;20280;-77
2021/10/14 00:50:24;;;;;;;10.25;8.90;;;;;;;7.32;100.00;100466.09;5087791;28;20200;-77
2021/10/14 00:52:52;;;;;;;12.52;9.13;;;;;;;7.19;100.00;100470.09;5087743;28;20192;-77
2021/10/14 00:55:20;;;;;;;13.95;8.23;;;;;;;7.14;100.00;100477.38;5071732;28;20227;-77
2021/10/14 00:57:47;;;;;;;15.00;9.32;;;;;;;6.89;100.00;100483.44;5084388;28;20199;-77
2021/10/14 01:00:13;;;;;;;11.18;7.10;;;;;;;6.79;100.00;100481.09;5072072;28;20180;-78
2021/10/14 01:02:40;;;;;;;9.05;6.82;;;;;;;6.73;100.00;100482.13;5072376;28;20303;-78
2021/10/14 01:05:09;;;;;;;9.82;7.50;;;;;;;6.78;100.00;100477.50;5081196;28;20517;-79
2021/10/14 01:07:36;;;;;;;8.45;7.50;;;;;;;6.68;100.00;100476.03;5084620;28;20192;-77
2021/10/14 01:10:04;;;;;;;8.57;7.68;;;;;;;6.56;100.00;100485.28;5091385;28;20198;-78
2021/10/14 01:12:31;;;;;;;10.35;8.15;;;;;;;6.47;100.00;100475.72;5089216;28;20206;-78
2021/10/14 01:14:58;;;;;;;9.32;7.75;;;;;;;6.43;100.00;100478.53;5091370;28;20206;-78
2021/10/14 01:17:24;;;;;;;10.15;7.97;;;;;;;6.47;100.00;100474.84;5091678;28;20204;-78
2021/10/14 01:19:52;;;;;;;11.80;8.82;;;;;;;6.34;100.00;100479.63;5091180;28;20180;-78
2021/10/14 01:22:19;;;;;;;12.20;7.72;;;;;;;6.32;100.00;100462.75;5092001;28;20310;-78
2021/10/14 01:24:47;;;;;;;12.55;8.10;;;;;;;6.21;100.00;100459.47;5087706;28;20275;-78
2021/10/14 01:27:14;;;;;;;9.13;7.80;;;;;;;6.24;100.00;100460.28;5075753;28;20225;-77
2021/10/14 01:29:41;;;;;;;9.63;8.25;;;;;;;6.33;100.00;100456.50;5090897;28;20269;-78
2021/10/14 01:32:07;;;;;;;9.80;8.27;;;;;;;6.28;100.00;100447.69;5079498;28;20185;-76
2021/10/14 01:34:34;;;;;;;13.80;9.40;;;;;;;6.57;100.00;100448.69;5073254;28;20203;-78
2021/10/14 01:37:02;;;;;;;12.25;9.02;;;;;;;6.75;100.00;100448.16;5071556;28;20189;-78
2021/10/14 01:39:29;;;;;;;9.88;8.88;;;;;;;6.84;100.00;100450.56;5079250;28;20190;-77
2021/10/14 01:41:56;;;;;;;11.75;9.30;;;;;;;6.78;100.00;100453.41;5091666;28;20206;-77
2021/10/14 01:44:22;;;;;;;11.85;8.55;;;;;;;6.78;100.00;100453.41;5094048;28;20196;-78
2021/10/14 01:46:49;;;;;;;10.45;7.90;;;;;;;6.86;100.00;100448.75;5091372;28;20180;-77
2021/10/14 01:49:15;;;;;;;11.75;9.02;;;;;;;6.80;100.00;100448.03;5075962;28;20206;-78
2021/10/14 01:51:42;;;;;;;10.65;8.80;;;;;;;6.88;100.00;100446.91;5084335;28;20694;-77
2021/10/14 01:54:11;;;;;;;12.20;9.75;;;;;;;6.95;100.00;100444.03;5090351;28;20678;-77
2021/10/14 01:56:38;;;;;;;13.02;10.00;;;;;;;6.77;100.00;100432.94;5087577;28;20187;-79
2021/10/14 01:59:05;;;;;;;13.52;10.05;;;;;;;6.91;100.00;100440.56;5091496;28;20291;-77
2021/10/14 02:01:31;;;;;;;13.60;10.18;;;;;;;6.89;100.00;100440.59;5080633;28;20660;-77
2021/10/14 02:03:58;;;;;;;13.10;9.63;;;;;;;6.92;100.00;100436.09;5084773;28;20204;-78
2021/10/14 02:06:25;;;;;;;15.80;9.50;;;;;;;6.89;100.00;100439.72;5088664;28;20200;-78
2021/10/14 02:08:52;;;;;;;11.82;9.40;;;;;;;7.03;100.00;100424.16;5082795;28;20283;-78
2021/10/14 02:11:20;;;;;;;14.43;9.82;;;;;;;7.02;100.00;100418.84;5094363;28;20196;-76
2021/10/14 02:13:47;;;;;;;16.10;11.02;;;;;;;6.97;100.00;100431.50;5083802;28;20189;-77
2021/10/14 02:16:14;;;;;;;16.95;10.82;;;;;;;7.02;100.00;100424.19;5091159;28;20634;-78
2021/10/14 02:18:40;;;;;;;12.27;10.40;;;;;;;6.98;100.00;100430.56;5087241;28;20184;-79
2021/10/14 02:21:07;;;;;;;13.75;10.15;;;;;;;6.94;100.00;100432.44;5082042;28;20195;-78
2021/10/14 02:23:34;;;;;;;15.02;10.30;;;;;;;6.96;100.00;100433.25;5083418;28;20287;-77
2021/10/14 02:26:00;;;;;;;15.82;10.82;;;;;;;7.07;100.00;100435.63;5076569;28;20192;-78
2021/10/14 02:28:28;;;;;;;15.63;10.82;;;;;;;7.10;98.87;100431.06;5088761;28;20195;-77
2021/10/14 02:30:55;;;;;;;17.70;11.48;;;;;;;6.89;99.35;100445.09;5082884;28;20275;-77
2021/10/14 02:33:21;;;;;;;18.48;11.30;;;;;;;6.77;100.00;100440.09;5088763;28;20275;-77
2021/10/14 02:35:48;;;;;;;14.50;10.40;;;;;;;6.76;100.00;100444.59;5084796;28;20269;-78
2021/10/14 02:38:15;;;;;;;15.68;11.15;;;;;;;6.65;100.00;100444.88;5094483;28;20195;-77
2021/10/14 02:40:41;;;;;;;16.42;11.07;;;;;;;6.89;100.00;100440.59;5089164;28;20188;-77
2021/10/14 02:43:08;;;;;;;14.98;11.00;;;;;;;7.02;100.00;100443.81;5093677;28;20208;-77
2021/10/14 02:45:36;;;;;;;19.70;12.15;;;;;;;7.02;99.76;100442.94;5074433;28;20185;-78
2021/10/14 02:48:03;;;;;;;14.23;11.00;;;;;;;7.01;100.00;100438.47;5075268;28;20714;-77
2021/10/14 02:50:29;;;;;;;17.30;11.55;;;;;;;6.97;100.00;100444.88;5088405;28;20188;-78
2021/10/14 02:52:56;;;;;;;16.55;12.25;;;;;;;7.02;100.00;100442.94;5080854;28;20184;-77
2021/10/14 02:55:23;;;;;;;18.50;12.30;;;;;;;7.15;100.00;100448.81;5089138;28;20630;-77
2021/10/14 02:57:49;;;;;;;16.20;11.82;;;;;;;7.25;98.15;100442.22;5080485;28;20275;-77
2021/10/14 03:00:16;;;;;;;15.50;11.68;;;;;;;7.13;98.67;100446.16;5089620;28;20212;-78
2021/10/14 03:02:44;;;;;;;16.40;11.38;;;;;;;7.12;98.48;100444.38;5074608;28;20211;-79
2021/10/14 03:05:12;;;;;;;16.80;11.55;;;;;;;7.21;97.67;100440.56;5093785;28;20279;-78
2021/10/14 03:07:38;;;;;;;19.73;11.73;;;;;;;7.20;96.31;100445.06;5081537;28;20196;-78
2021/10/14 03:10:06;;;;;;;18.75;12.85;;;;;;;7.04;97.66;100433.06;5073474;28;20274;-76
2021/10/14 03:12:32;;;;;;;14.60;11.52;;;;;;;7.41;95.55;100442.63;5085845;28;20280;-77
2021/10/14 03:14:59;;;;;;;16.40;12.70;;;;;;;7.48;93.89;100436.13;5074452;28;20292;-77
2021/10/14 03:17:26;;;;;;;17.77;12.65;;;;;;;7.25;95.58;100435.06;5085920;28;20279;-78
2021/10/14 03:19:54;;;;;;;22.17;12.93;;;;;;;7.34;96.01;100438.38;5075726;28;20195;-78
2021/10/14 03:22:20;;;;;;;18.17;13.25;;;;;;;7.14;95.90;100436.31;5082208;28;20202;-77
2021/10/14 03:24:47;;;;;;;16.30;11.65;;;;;;;7.25;96.08;100435.06;5083743;28;20630;-77
2021/10/14 03:27:13;;;;;;;17.27;11.90;;;;;;;7.23;96.38;100433.34;5093341;28;20213;-77
2021/10/14 03:29:40;;;;;;;22.67;11.38;;;;;;;7.20;95.90;100444.19;5080501;28;20763;-77
2021/10/14 03:32:07;;;;;;;15.38;11.18;;;;;;;7.18;95.72;100444.22;5073253;28;20185;-77
2021/10/14 03:34:34;;;;;;;19.13;13.00;;;;;;;7.25;95.37;100439.53;5075957;28;20531;-78
2021/10/14 03:37:02;;;;;;;16.20;12.38;;;;;;;7.27;94.68;100443.94;5083856;28;20593;-78
2021/10/14 03:39:29;;;;;;;14.95;11.27;;;;;;;7.40;93.68;100435.53;5081483;28;20223;-77
2021/10/14 03:41:56;;;;;;;14.98;11.10;;;;;;;7.28;94.77;100439.44;5074281;28;20196;-77
2021/10/14 03:44:22;;;;;;;16.42;11.70;;;;;;;7.13;94.78;100451.53;5086409;28;20231;-77
2021/10/14 03:46:49;;;;;;;18.90;12.88;;;;;;;6.95;96.56;100452.06;5077539;28;20212;-77
2021/10/14 03:49:16;;;;;;;16.13;12.35;;;;;;;7.03;97.01;100450.94;5089233;28;20224;-79
2021/10/14 03:51:42;;;;;;;16.23;12.18;;;;;;;6.98;97.59;100455.53;5084812;28;20185;-77
2021/10/14 03:54:10;;;;;;;14.98;12.57;;;;;;;7.02;97.35;100451.84;5092030;28;20204;-78
2021/10/14 03:56:37;;;;;;;16.80;11.80;;;;;;;7.14;96.75;100453.25;5082451;28;20188;-77
2021/10/14 03:59:03;;;;;;;14.60;11.77;;;;;;;7.10;96.78;100451.63;5083253;28;20659;-78
2021/10/14 04:01:30;;;;;;;13.63;11.52;;;;;;;7.20;95.52;100453.09;5091358;28;20204;-77
2021/10/14 04:03:57;;;;;;;15.77;11.40;;;;;;;7.25;95.11;100456.50;5088184;28;20201;-77
2021/10/14 04:06:23;;;;;;;15.85;12.00;;;;;;;7.13;95.46;100448.84;5087845;28;20215;-77
2021/10/14 04:08:50;;;;;;;17.25;13.45;;;;;;;7.06;96.13;100441.94;5072799;28;20193;-77
2021/10/14 04:11:18;;;;;;;17.50;12.48;;;;;;;6.96;96.41;100454.69;5092540;28;20196;-77
2021/10/14 04:13:44;;;;;;;15.82;12.45;;;;;;;6.53;99.15;100452.38;5092529;28;20180;-77
2021/10/14 04:16:11;;;;;;;16.25;13.52;;;;;;;6.68;99.75;100452.81;5091745;28;20204;-78
2021/10/14 04:18:37;;;;;;;18.13;13.15;;;;;;;6.73;99.66;100449.13;5090818;28;20303;-78
2021/10/14 04:21:05;;;;;;;16.08;11.70;;;;;;;6.72;98.71;100450.06;5073080;28;20222;-77
2021/10/14 04:23:31;;;;;;;16.55;11.27;;;;;;;6.75;97.95;100464.22;5079262;28;20249;-78
2021/10/14 04:25:58;;;;;;;16.60;13.95;;;;;;;6.70;98.09;100449.25;5092569;28;20196;-78
2021/10/14 04:28:26;;;;;;;13.85;11.32;;;;;;;6.81;97.13;100455.16;5082263;28;20202;-78
2021/10/14 04:30:53;;;;;;;13.93;11.23;;;;;;;6.82;96.05;100456.91;5077661;28;20238;-77
2021/10/14 04:33:19;;;;;;;14.32;11.43;;;;;;;6.72;96.47;100455.44;5089722;28;20187;-78
2021/10/14 04:35:46;;;;;;;15.20;11.63;;;;;;;6.86;96.12;100455.91;5079356;28;20273;-79
2021/10/14 04:38:16;;;;;;;20.45;12.73;;;;;;;6.69;96.88;100451.00;5077901;28;20228;-76
2021/10/14 04:40:43;;;;;;;17.13;12.35;;;;;;;6.77;97.48;100458.84;5091065;28;20188;-77
2021/10/14 04:43:09;;;;;;;18.25;11.40;;;;;;;6.79;97.08;100455.19;5091448;28;20561;-78
2021/10/14 04:45:37;;;;;;;13.40;11.07;;;;;;;6.75;96.88;100453.53;5084998;28;20225;-77
2021/10/14 04:48:04;;;;;;;14.50;11.32;;;;;;;6.84;96.25;100455.06;5073909;28;20283;-77
2021/10/14 04:50:31;;;;;;;16.17;11.73;;;;;;;6.80;96.55;100453.38;5089651;28;20234;-78
2021/10/14 04:52:57;;;;;;;17.30;12.57;;;;;;;6.80;96.56;100458.75;5082504;28;20268;-77
2021/10/14 04:55:24;;;;;;;17.95;13.00;;;;;;;6.76;96.75;100465.09;5079234;28;20184;-78
2021/10/14 04:57:50;;;;;;;17.80;13.18;;;;;;;6.77;97.38;100467.75;5086882;28;20192;-77
2021/10/14 05:00:18;;;;;;;15.20;12.35;;;;;;;6.97;96.36;100466.31;5086644;28;20214;-77
2021/10/14 05:02:47;;;;;;;23.77;14.48;;;;;;;6.95;95.20;100477.03;5084630;28;20527;-77
2021/10/14 05:05:13;;;;;;;19.88;14.75;;;;;;;6.82;96.40;100471.16;5077878;28;20375;-78
2021/10/14 05:07:40;;;;;;;20.90;13.55;;;;;;;7.01;96.48;100470.63;5084663;28;20200;-76
2021/10/14 05:10:07;;;;;;;19.60;13.35;;;;;;;7.09;95.15;100468.59;5080426;28;20198;-78
2021/10/14 05:12:35;;;;;;;18.88;14.52;;;;;;;6.98;95.11;100468.91;5081644;28;20200;-79
2021/10/14 05:15:05;;;;;;;19.42;14.57;;;;;;;7.09;94.89;100469.47;5071114;28;20185;-77
2021/10/14 05:17:32;;;;;;;24.02;15.55;;;;;;;7.02;94.02;100469.72;5090522;28;20188;-78
2021/10/14 05:20:00;;;;;;;22.80;15.65;;;;;;;6.91;95.22;100467.34;5075571;28;20199;-79
2021/10/14 05:22:26;;;;;;;24.58;14.00;;;;;;;6.87;95.60;100458.53;5090099;28;20188;-77
2021/10/14 05:24:53;;;;;;;19.65;14.40;;;;;;;6.91;95.69;100466.47;5093061;28;20214;-79
2021/10/14 05:27:20;;;;;;;23.50;15.88;;;;;;;6.84;96.38;100469.31;5094993;28;20195;-78
2021/10/14 05:29:46;;;;;;;20.65;14.60;;;;;;;6.82;97.00;100455.09;5094421;28;20315;-79
2021/10/14 05:32:13;;;;;;;21.13;13.65;;;;;;;6.91;96.75;100458.44;5092702;28;20195;-79
2021/10/14 05:34:40;;;;;;;24.90;14.85;;;;;;;6.92;96.95;100457.50;5094435;28;20180;-78
2021/10/14 05:37:08;;;;;;;22.77;14.43;;;;;;;6.97;96.10;100459.13;5084172;28;20614;-77
2021/10/14 05:39:35;;;;;;;30.27;24.23;;;;;;;7.04;96.00;100460.72;5076363;28;20203;-79
2021/10/14 05:42:01;;;;;;;21.83;14.77;;;;;;;7.03;95.74;100466.09;5091399;28;20637;-79
2021/10/14 05:44:28;;;;;;;22.15;14.70;;;;;;;6.87;96.17;100466.56;5093010;28;20294;-76
2021/10/14 05:46:54;;;;;;;34.30;29.55;;;;;;;6.91;96.62;100463.78;5094343;28;20739;-76
2021/10/14 05:49:21;;;;;;;19.27;13.18;;;;;;;6.87;97.18;100463.91;5095557;28;20634;-78
2021/10/14 05:51:48;;;;;;;17.70;12.98;;;;;;;6.94;96.70;100469.03;5096090;28;20270;-78
2021/10/14 05:54:16;;;;;;;18.17;13.32;;;;;;;6.90;96.84;100468.28;5095344;28;20219;-78
2021/10/14 05:56:42;;;;;;;18.83;12.55;;;;;;;7.06;95.75;100468.72;5086779;28;20644;-77
2021/10/14 05:59:09;;;;;;;18.63;15.43;;;;;;;7.05;95.46;100459.78;5091410;28;20214;-78
2021/10/14 06:01:35;;;;;;;18.77;13.65;;;;;;;6.98;96.77;100462.69;5086912;28;20279;-78
2021/10/14 06:04:02;;;;;;;19.25;15.02;;;;;;;6.97;96.98;100466.31;5092710;28;20204;-77
2021/10/14 06:06:29;;;;;;;18.27;13.95;;;;;;;7.07;96.52;100470.44;5082777;28;20208;-77
2021/10/14 06:08:55;;;;;;;26.08;13.23;;;;;;;7.08;95.79;100472.22;5083482;28;20207;-77
2021/10/14 06:11:23;;;;;;;17.85;13.68;;;;;;;7.15;94.86;100470.22;5090420;28;20210;-77
2021/10/14 06:13:50;;;;;;;19.60;13.10;;;;;;;7.06;95.07;100474.06;5092288;28;20196;-78
2021/10/14 06:16:16;;;;;;;25.80;13.80;;;;;;;7.19;94.98;100462.06;5081430;28;20203;-78
2021/10/14 06:18:43;;;;;;;21.27;13.45;;;;;;;7.15;95.02;100470.22;5082401;28;20194;-79
2021/10/14 06:21:09;;;;;;;18.85;12.85;;;;;;;7.17;94.69;100474.63;5075386;28;20636;-77
2021/10/14 06:23:36;;;;;;;16.75;12.10;;;;;;;7.09;94.61;100479.31;5080144;28;20193;-78
2021/10/14 06:26:03;;;;;;;18.77;11.50;;;;;;;7.19;93.60;100472.78;5089357;28;20195;-78
2021/10/14 06:28:31;;;;;;;18.45;12.63;;;;;;;7.18;94.48;100479.03;5076634;28;20197;-77
2021/10/14 06:30:58;;;;;;;18.73;14.73;;;;;;;7.26;94.55;100473.47;5084484;28;20528;-78
2021/10/14 06:33:24;;;;;;;17.40;13.35;;;;;;;7.29;93.92;100471.56;5073966;28;20295;-78
2021/10/14 06:35:51;;;;;;;13.52;11.77;;;;;;;7.25;93.05;100475.25;5086017;28;20200;-79
2021/10/14 06:38:17;;;;;;;17.02;11.48;;;;;;;7.15;93.86;100465.75;5093480;28;20281;-78
2021/10/14 06:40:44;;;;;;;14.82;12.65;;;;;;;7.34;92.51;100463.38;5095289;28;20184;-77
2021/10/14 06:43:11;;;;;;;15.02;12.20;;;;;;;7.27;92.58;100473.41;5090930;28;20202;-77
2021/10/14 06:45:39;;;;;;;14.90;10.85;;;;;;;7.29;93.00;100462.63;5091778;28;20626;-76
2021/10/14 06:48:06;;;;;;;14.07;11.55;;;;;;;7.12;94.05;100463.13;5097370;28;20290;-77
2021/10/14 06:50:33;;;;;;;16.23;12.98;;;;;;;7.13;94.48;100467.59;5092570;28;20529;-77
2021/10/14 06:53:01;;;;;;;15.65;12.75;;;;;;;7.08;94.79;100467.72;5093231;28;20196;-78
2021/10/14 06:55:28;;;;;;;16.13;11.25;;;;;;;7.06;95.29;100466.03;5091553;28;20642;-79
2021/10/14 06:57:54;;;;;;;12.93;10.85;;;;;;;7.14;95.17;100458.63;5089840;28;20202;-78
2021/10/14 07:00:22;;;;;;;14.52;11.85;;;;;;;7.01;96.21;100462.59;5089335;28;20181;-80
2021/10/14 07:02:50;;;;;;;17.88;11.50;;;;;;;6.95;96.30;100471.69;5076678;28;20282;-79
2021/10/14 07:05:17;;;;;;;18.00;11.65;;;;;;;6.94;96.85;100463.69;5089940;28;20219;-77
2021/10/14 07:07:43;;;;;;;17.33;11.45;;;;;;;7.06;96.43;100466.91;5093144;28;20222;-79
2021/10/14 07:10:11;;;;;;;17.95;11.05;;;;;;;7.00;96.51;100467.06;5090135;28;20193;-80
2021/10/14 07:12:40;;;;;;;17.83;12.85;;;;;;;7.03;96.50;100463.41;5091916;28;20207;-79
2021/10/14 07:15:07;;;;;;;12.57;10.57;;;;;;;7.29;95.47;100460.84;5086749;28;20629;-77
2021/10/14 07:17:34;;;;;;;12.30;11.02;;;;;;;7.54;92.88;100454.72;5087399;28;20272;-78
2021/10/14 07:20:02;;;;;;;14.05;11.55;;;;;;;7.67;91.95;100456.06;5091576;28;20184;-77
2021/10/14 07:22:29;;;;;;;13.35;11.05;;;;;;;7.84;91.11;100457.31;5092933;28;20278;-77
2021/10/14 07:24:56;;;;;;;17.25;12.25;;;;;;;7.91;90.54;100459.75;5093909;28;20215;-79
2021/10/14 07:27:23;;;;;;;14.07;10.90;;;;;;;7.79;91.01;100456.59;5073857;28;20207;-77
2021/10/14 07:29:49;;;;;;;11.63;10.07;;;;;;;7.67;91.62;100461.44;5087315;28;20681;-78
2021/10/14 07:32:16;;;;;;;15.00;11.75;;;;;;;7.60;92.97;100454.53;5097442;28;20200;-77
2021/10/14 07:34:42;;;;;;;14.45;11.50;;;;;;;7.58;93.32;100459.06;5098021;28;20602;-77
2021/10/14 07:37:10;;;;;;;18.40;12.48;;;;;;;7.66;93.53;100461.47;5095337;28;20590;-78
2021/10/14 07:39:37;;;;;;;14.32;10.45;;;;;;;7.97;91.67;100461.34;5093956;28;20262;-77
2021/10/14 07:42:04;;;;;;;15.52;13.52;;;;;;;8.26;89.78;100457.66;5094051;28;20194;-76
2021/10/14 07:44:31;;;;;;;22.98;16.55;;;;;;;8.29;88.69;100456.69;5088460;28;20205;-76
2021/10/14 07:46:58;;;;;;;16.80;12.20;;;;;;;8.13;89.00;100459.00;5075123;28;20659;-76
2021/10/14 07:49:25;;;;;;;13.80;11.15;;;;;;;7.91;91.02;100466.91;5077251;28;20578;-75
2021/10/14 07:51:52;;;;;;;18.30;11.57;;;;;;;7.92;92.02;100477.59;5077141;28;20662;-78
2021/10/14 07:54:20;;;;;;;12.40;10.70;;;;;;;7.93;91.66;100465.91;5078404;28;20239;-77
2021/10/14 07:56:46;;;;;;;11.88;10.60;;;;;;;8.15;90.38;100474.13;5087296;28;20223;-76
2021/10/14 07:59:13;;;;;;;15.95;12.48;;;;;;;8.02;91.34;100472.78;5095503;28;20201;-78
2021/10/14 08:01:39;;;;;;;14.00;11.98;;;;;;;8.25;91.02;100465.75;5098091;28;20216;-77
2021/10/14 08:04:08;;;;;;;13.45;11.38;;;;;;;8.59;88.65;100462.78;5094354;28;20616;-78
2021/10/14 08:06:35;;;;;;;14.45;11.35;;;;;;;8.42;88.82;100466.09;5095634;28;20618;-79
2021/10/14 08:09:02;;;;;;;14.43;11.57;;;;;;;8.41;90.07;100475.06;5095241;28;20189;-79
2021/10/14 08:11:30;;;;;;;13.85;11.80;;;;;;;8.41;90.22;100471.50;5095863;28;20204;-78
2021/10/14 08:13:57;;;;;;;16.55;12.20;;;;;;;8.53;90.03;100469.25;5096857;28;20204;-77
2021/10/14 08:16:24;;;;;;;15.25;12.43;;;;;;;8.64;89.40;100471.56;5096711;28;20180;-77
2021/10/14 08:18:50;;;;;;;17.88;12.20;;;;;;;8.70;89.04;100476.69;5094234;28;20188;-78
2021/10/14 08:21:17;;;;;;;16.58;13.18;;;;;;;8.61;89.68;100474.34;5096619;28;20204;-78
2021/10/14 08:23:43;;;;;;;17.88;13.73;;;;;;;8.53;90.07;100476.44;5097479;28;20192;-78
2021/10/14 08:26:10;;;;;;;16.90;12.82;;;;;;;8.73;89.49;100475.72;5095452;28;20285;-77
2021/10/14 08:28:38;;;;;;;14.77;12.73;;;;;;;8.91;88.66;100469.66;5093981;28;20668;-77
2021/10/14 08:31:05;;;;;;;18.65;12.57;;;;;;;8.96;88.18;100472.19;5095693;28;20277;-78
2021/10/14 08:33:32;;;;;;;18.38;12.65;;;;;;;9.13;87.40;100464.34;5091140;28;20195;-76
2021/10/14 08:35:58;;;;;;;13.38;11.38;;;;;;;9.10;87.62;100466.28;5091932;28;20296;-76
2021/10/14 08:38:25;;;;;;;15.75;13.10;;;;;;;9.41;86.96;100457.91;5085364;28;20539;-76
2021/10/14 08:40:53;;;;;;;15.02;12.07;;;;;;;9.74;84.60;100454.78;5079166;28;20187;-78
2021/10/14 08:43:20;;;;;;;19.08;13.70;;;;;;;9.69;85.16;100451.41;5092303;28;20207;-76
2021/10/14 08:45:50;;;;;;;12.98;11.07;;;;;;;9.57;85.05;100458.19;5092385;28;20218;-76
2021/10/14 08:48:17;;;;;;;17.63;13.15;;;;;;;9.81;84.80;100456.28;5092320;28;20210;-75
2021/10/14 08:50:45;;;;;;;12.82;11.57;;;;;;;9.92;83.72;100458.53;5092594;28;20279;-75
2021/10/14 08:53:12;;;;;;;13.90;12.48;;;;;;;9.92;84.17;100459.41;5091649;28;20701;-77
2021/10/14 08:55:40;;;;;;;13.85;12.43;;;;;;;10.17;82.83;100455.69;5092302;28;20290;-77
2021/10/14 08:58:07;;;;;;;17.33;13.70;;;;;;;10.11;83.36;100454.13;5091648;28;20222;-77
2021/10/14 09:00:35;;;;;;;15.02;12.40;;;;;;;10.44;82.92;100459.88;5091660;28;20204;-77
2021/10/14 09:03:23;;;;;;;14.10;11.75;;;;;;;10.71;81.84;100458.75;5091009;28;20543;-76
2021/10/14 09:05:50;;;;;;;18.13;13.50;;;;;;;11.24;79.19;100464.38;5091527;28;20234;-76
2021/10/14 09:08:16;;;;;;;13.93;12.30;;;;;;;11.48;76.97;100473.09;5092156;28;20282;-76
2021/10/14 09:10:43;;;;;;;18.00;12.48;;;;;;;12.05;75.85;100472.16;5092119;28;20298;-77
2021/10/14 09:13:16;;;;;;;16.67;11.25;;;;;;;12.44;74.05;100471.09;5092520;28;20215;-76
2021/10/14 09:15:43;;;;;;;12.55;10.70;;;;;;;12.79;71.56;100461.09;5090312;28;20200;-77
2021/10/14 09:18:11;;;;;;;12.75;11.45;;;;;;;13.05;70.05;100461.53;5091787;28;20199;-77
2021/10/14 09:20:39;;;;;;;12.20;10.90;;;;;;;13.27;68.73;100470.22;5092476;28;20216;-76
2021/10/14 09:23:09;;;;;;;15.07;11.50;;;;;;;13.46;68.27;100461.09;5092268;28;20201;-74
2021/10/14 09:25:38;;;;;;;12.60;11.02;;;;;;;13.17;68.75;100470.81;5091254;28;20623;-76
2021/10/14 09:28:07;;;;;;;12.65;10.65;;;;;;;13.09;69.72;100465.81;5091546;28;20216;-76
2021/10/14 09:30:43;;;;;;;12.38;11.15;;;;;;;12.82;70.61;100452.84;5090638;28;20235;-75
2021/10/14 09:33:32;;;;;;;15.35;11.40;;;;;;;12.75;71.43;100453.25;5092897;28;20275;-76
2021/10/14 09:36:11;;;;;;;12.68;11.27;;;;;;;12.97;71.14;100458.38;5088941;28;20194;-76
2021/10/14 09:38:38;;;;;;;15.90;12.57;;;;;;;12.86;71.52;100457.09;5071290;28;20287;-76
2021/10/14 09:41:06;;;;;;;12.60;11.30;;;;;;;12.33;72.57;100457.28;5071744;28;20295;-78
2021/10/14 09:43:33;;;;;;;12.35;11.02;;;;;;;12.49;73.00;100448.28;5092708;28;20286;-77
2021/10/14 09:46:00;;;;;;;14.50;12.02;;;;;;;12.77;72.51;100440.53;5091906;28;20232;-76
2021/10/14 09:48:28;;;;;;;15.00;11.45;;;;;;;13.08;70.82;100437.91;5092178;28;20206;-76
2021/10/14 09:50:55;;;;;;;15.55;11.93;;;;;;;13.27;70.35;100445.88;5088449;28;20198;-77
2021/10/14 09:53:23;;;;;;;13.85;11.45;;;;;;;13.35;69.65;100431.94;5091786;28;20522;-76
2021/10/14 09:55:51;;;;;;;14.75;12.23;;;;;;;13.29;70.18;100446.66;5091144;28;20605;-76
2021/10/14 09:58:17;;;;;;;17.05;13.60;;;;;;;13.45;69.96;100432.28;5091179;28;20196;-75
2021/10/14 10:00:45;;;;;;;20.63;13.45;;;;;;;13.46;69.72;100437.63;5095854;28;20506;-76
2021/10/14 10:03:15;;;;;;;17.98;12.75;;;;;;;13.35;69.99;100426.53;5094998;28;20232;-76
2021/10/14 10:05:46;;;;;;;14.27;11.70;;;;;;;13.30;70.15;100431.34;5096512;28;20626;-78
2021/10/14 10:08:20;;;;;;;16.52;12.65;;;;;;;13.45;70.34;100425.03;5083831;28;20680;-77
2021/10/14 10:10:48;;;;;;;15.52;12.23;;;;;;;13.58;69.86;100430.63;5090915;28;20657;-77
2021/10/14 10:13:17;;;;;;;17.27;11.88;;;;;;;13.63;69.54;100424.97;5098708;28;20252;-77
2021/10/14 10:15:45;;;;;;;17.88;12.90;;;;;;;13.71;69.32;100420.84;5098626;28;20611;-76
2021/10/14 10:18:42;;;;;;;16.33;13.68;;;;;;;13.92;68.69;100424.13;5095559;28;20640;-77
2021/10/14 10:21:25;;;;;;;14.55;12.00;;;;;;;14.09;68.30;100419.56;5095244;28;20630;-76
2021/10/14 10:23:53;;;;;;;12.15;10.85;;;;;;;14.07;67.95;100416.06;5094805;28;20278;-76
2021/10/14 10:26:47;;;;;;;18.58;15.73;;;;;;;14.03;67.63;100411.81;5094609;28;20292;-77
2021/10/14 10:29:43;;;;;;;13.52;11.73;;;;;;;14.23;67.72;100406.06;5080233;28;20291;-78
2021/10/14 10:32:16;;;;;;;12.70;10.63;;;;;;;14.38;67.53;100402.44;5074323;28;20206;-78
2021/10/14 10:34:48;;;;;;;16.42;11.60;;;;;;;14.60;66.81;100406.53;5074576;28;20602;-78
2021/10/14 10:37:19;;;;;;;12.77;11.07;;;;;;;14.74;66.25;100405.66;5074680;28;20190;-77
2021/10/14 10:39:48;;;;;;;15.05;11.60;;;;;;;14.92;65.73;100409.06;5094683;28;20319;-81
2021/10/14 10:42:17;;;;;;;14.63;11.25;;;;;;;14.99;64.90;100402.28;5091310;28;20209;-79
2021/10/14 10:44:44;;;;;;;11.27;8.73;;;;;;;14.73;63.08;100393.97;5094338;28;20202;-78
2021/10/14 10:47:39;;;;;;;16.05;9.02;;;;;;;14.53;62.25;100391.59;5096165;28;20194;-79
2021/10/14 10:50:07;;;;;;;7.50;6.60;;;;;;;14.13;61.69;100377.78;5094197;28;20534;-78
2021/10/14 10:52:37;;;;;;;7.60;5.90;;;;;;;14.27;60.48;100380.53;5087339;28;20201;-77
2021/10/14 10:55:13;;;;;;;12.48;6.90;;;;;;;14.22;61.49;100379.06;5083682;28;20280;-78
2021/10/14 10:57:47;;;;;;;14.93;11.07;;;;;;;14.44;60.85;100376.78;5074984;28;20301;-77
2021/10/14 11:00:15;;;;;;;9.60;6.50;;;;;;;14.37;60.58;100367.28;5082312;28;20228;-77
2021/10/14 11:02:42;;;;;;;11.23;6.60;;;;;;;14.22;60.71;100366.38;5091242;28;20193;-79
2021/10/14 11:05:09;;;;;;;10.93;7.15;;;;;;;14.35;60.97;100369.22;5077812;28;20222;-76
2021/10/14 11:07:38;;;;;;;10.77;5.85;;;;;;;14.42;60.49;100370.56;5087516;28;20252;-78
2021/10/14 11:10:05;;;;;;;12.18;6.53;;;;;;;14.51;59.95;100369.13;5091927;28;20738;-76
2021/10/14 11:12:32;;;;;;;11.43;7.82;;;;;;;14.03;61.27;100365.78;5092694;28;20220;-77
2021/10/14 11:14:59;;;;;;;13.77;8.85;;;;;;;14.24;61.52;100359.03;5092147;28;20718;-77
2021/10/14 11:17:26;;;;;;;9.40;7.20;;;;;;;14.25;61.37;100366.22;5092992;28;20200;-78
2021/10/14 11:20:05;;;;;;;11.38;8.02;;;;;;;14.36;61.57;100358.28;5093389;28;20202;-77